Time;durP1;ratioP1;P1;durP2;ratioP2;P2;SDS_P1;SDS_P2;PMS_P1;PMS_P2;Temp;Humidity;BMP_temperature;BMP_pressure;BME280_temperature;BME280_humidity;BME280_pressure;Samples;Min_cycle;Max_cycle;Signal;HPM_P1;HPM_P2
2022/01/27 00:05:31;;;;;;;;;52.25;43.25;;;;;;;;5115954;27;45219;-64
2022/01/27 00:08:19;;;;;;;;;61.25;48.25;;;;;;;;5115308;27;45314;-63
2022/01/27 00:13:15;;;;;;;;;51.75;41.50;;;;;;;;5115363;27;45318;-64
2022/01/27 00:15:46;;;;;;;;;56.25;43.75;;;;;;;;5115478;27;45357;-64
2022/01/27 00:18:18;;;;;;;;;55.00;44.25;;;;;;;;5115303;27;45333;-64
2022/01/27 00:20:44;;;;;;;;;49.00;40.50;;;;;;;;5111455;27;46319;-65
2022/01/27 00:23:09;;;;;;;;;57.75;44.50;;;;;;;;5114684;27;45430;-64
2022/01/27 00:25:35;;;;;;;;;44.25;38.25;;;;;;;;5114768;27;45461;-64
2022/01/27 00:28:00;;;;;;;;;56.00;43.50;;;;;;;;5114857;27;45408;-64
2022/01/27 00:30:25;;;;;;;;;46.75;40.00;;;;;;;;5114920;27;46058;-64
2022/01/27 00:32:50;;;;;;;;;49.00;41.50;;;;;;;;5118669;27;45558;-64
2022/01/27 00:35:16;;;;;;;;;52.50;36.50;;;;;;;;5118927;27;45338;-64
2022/01/27 00:37:41;;;;;;;;;43.00;37.25;;;;;;;;5118401;27;45419;-64
2022/01/27 00:40:09;;;;;;;;;48.00;40.25;;;;;;;;5117950;27;46950;-64
2022/01/27 00:42:35;;;;;;;;;50.00;37.75;;;;;;;;5118374;27;45926;-63
2022/01/27 00:45:00;;;;;;;;;49.75;39.75;;;;;;;;5118386;27;45424;-64
2022/01/27 00:47:25;;;;;;;;;56.50;43.25;;;;;;;;5100188;27;45353;-64
2022/01/27 00:49:51;;;;;;;;;51.00;38.25;;;;;;;;5097492;27;47160;-64
2022/01/27 00:52:24;;;;;;;;;46.75;39.50;;;;;;;;5097601;27;45286;-63
2022/01/27 00:54:51;;;;;;;;;42.25;37.00;;;;;;;;5097327;27;45423;-64
2022/01/27 00:58:02;;;;;;;;;47.75;38.00;;;;;;;;5097557;27;45294;-64
2022/01/27 01:00:04;;;;;;;;;57.25;41.25;;;;;;;;5096310;27;45810;-64
2022/01/27 01:07:48;;;;;;;;;48.00;37.25;;;;;;;;5097053;27;45432;-63
2022/01/27 01:17:55;;;;;;;;;51.25;39.25;;;;;;;;5098039;27;45299;-64
2022/01/27 01:33:57;;;;;;;;;46.75;36.25;;;;;;;;5096984;27;45340;-64
2022/01/27 01:36:36;;;;;;;;;50.50;37.50;;;;;;;;5081778;27;45376;-63
2022/01/27 01:39:05;;;;;;;;;43.25;35.25;;;;;;;;5097133;27;45510;-64
2022/01/27 01:41:30;;;;;;;;;35.25;30.00;;;;;;;;5079082;27;46244;-64
2022/01/27 01:43:55;;;;;;;;;46.50;36.00;;;;;;;;5095488;27;45323;-64
2022/01/27 01:46:21;;;;;;;;;47.25;38.00;;;;;;;;5105736;27;45727;-64
2022/01/27 01:48:46;;;;;;;;;44.50;37.50;;;;;;;;5117514;27;45381;-64
2022/01/27 01:51:11;;;;;;;;;32.75;28.50;;;;;;;;5117029;27;46857;-64
2022/01/27 01:53:36;;;;;;;;;38.75;29.00;;;;;;;;5117856;27;45496;-63
2022/01/27 01:56:04;;;;;;;;;48.75;38.50;;;;;;;;5117400;27;45463;-64
2022/01/27 01:58:29;;;;;;;;;47.75;37.00;;;;;;;;5117477;27;45473;-63
2022/01/27 02:00:54;;;;;;;;;50.75;39.50;;;;;;;;5116829;27;45575;-63
2022/01/27 02:03:19;;;;;;;;;42.50;36.25;;;;;;;;5117131;27;45487;-63
2022/01/27 02:05:50;;;;;;;;;43.75;35.25;;;;;;;;5117588;27;45420;-63
2022/01/27 02:19:23;;;;;;;;;46.50;38.00;;;;;;;;5116859;27;45497;-63
2022/01/27 02:21:48;;;;;;;;;57.75;42.25;;;;;;;;5116442;27;46909;-64
2022/01/27 02:24:14;;;;;;;;;49.25;38.50;;;;;;;;5116921;27;45479;-63
2022/01/27 02:26:40;;;;;;;;;54.00;42.25;;;;;;;;5117499;27;45267;-63
2022/01/27 02:29:05;;;;;;;;;48.50;38.75;;;;;;;;5116705;27;45270;-64
2022/01/27 02:31:31;;;;;;;;;54.00;40.25;;;;;;;;5116489;27;45975;-62
2022/01/27 02:33:57;;;;;;;;;62.50;47.25;;;;;;;;5116680;27;45415;-62
2022/01/27 02:36:22;;;;;;;;;55.50;42.75;;;;;;;;5116492;27;45460;-62
2022/01/27 02:38:47;;;;;;;;;56.00;43.25;;;;;;;;5117004;27;45975;-63
2022/01/27 02:41:15;;;;;;;;;53.00;44.50;;;;;;;;5116642;27;45524;-62
2022/01/27 02:43:41;;;;;;;;;57.25;44.75;;;;;;;;5116172;27;46045;-63
2022/01/27 02:46:08;;;;;;;;;64.25;47.50;;;;;;;;5116482;27;45420;-63
2022/01/27 02:48:34;;;;;;;;;62.50;47.00;;;;;;;;5116417;27;45513;-62
2022/01/27 02:50:59;;;;;;;;;59.50;47.00;;;;;;;;5116077;27;45474;-62
2022/01/27 02:53:24;;;;;;;;;57.25;45.00;;;;;;;;5116959;27;45167;-62
2022/01/27 02:55:49;;;;;;;;;59.50;45.75;;;;;;;;5116393;27;45210;-62
2022/01/27 02:58:15;;;;;;;;;56.75;41.75;;;;;;;;5116269;27;45213;-63
2022/01/27 03:00:41;;;;;;;;;60.00;45.25;;;;;;;;5115993;27;46304;-63
2022/01/27 03:03:06;;;;;;;;;61.25;45.50;;;;;;;;5116123;27;45164;-63
2022/01/27 03:05:31;;;;;;;;;59.75;48.75;;;;;;;;5116678;27;45182;-63
2022/01/27 03:07:56;;;;;;;;;55.00;42.75;;;;;;;;5116211;27;45509;-62
2022/01/27 03:10:26;;;;;;;;;58.25;44.50;;;;;;;;5115636;27;47378;-62
2022/01/27 03:12:57;;;;;;;;;62.00;47.25;;;;;;;;5115571;27;45611;-63
2022/01/27 03:15:22;;;;;;;;;65.50;47.25;;;;;;;;5116040;27;45286;-63
2022/01/27 03:17:47;;;;;;;;;58.75;45.75;;;;;;;;5116080;27;45590;-63
2022/01/27 03:20:12;;;;;;;;;55.75;39.00;;;;;;;;5115627;27;46005;-62
2022/01/27 03:22:38;;;;;;;;;58.75;45.00;;;;;;;;5115447;27;45525;-64
2022/01/27 03:25:03;;;;;;;;;56.50;42.75;;;;;;;;5115637;27;45537;-62
2022/01/27 03:27:29;;;;;;;;;59.75;46.25;;;;;;;;5115720;27;45399;-63
2022/01/27 03:29:54;;;;;;;;;56.00;44.50;;;;;;;;5115565;27;46277;-63
2022/01/27 03:32:20;;;;;;;;;54.25;44.50;;;;;;;;5115861;27;45440;-63
2022/01/27 03:34:45;;;;;;;;;62.50;45.75;;;;;;;;5115245;27;45344;-63
2022/01/27 03:37:11;;;;;;;;;56.75;45.00;;;;;;;;5115531;27;45374;-63
2022/01/27 03:39:38;;;;;;;;;60.00;42.75;;;;;;;;5115541;27;46015;-63
2022/01/27 03:42:04;;;;;;;;;60.50;47.25;;;;;;;;5115681;27;45404;-63
2022/01/27 03:44:29;;;;;;;;;58.50;46.00;;;;;;;;5116475;27;45293;-63
2022/01/27 03:46:55;;;;;;;;;57.75;47.50;;;;;;;;5115028;27;45494;-63
2022/01/27 03:49:20;;;;;;;;;58.75;46.75;;;;;;;;5114654;27;46159;-63
2022/01/27 03:51:46;;;;;;;;;59.75;45.75;;;;;;;;5114957;27;45305;-64
2022/01/27 03:54:11;;;;;;;;;39.50;29.50;;;;;;;;5115109;27;45377;-63
2022/01/27 03:56:36;;;;;;;;;56.75;40.25;;;;;;;;5115789;27;45606;-63
2022/01/27 03:59:02;;;;;;;;;64.00;46.50;;;;;;;;5114874;27;47134;-63
2022/01/27 04:01:28;;;;;;;;;65.25;50.00;;;;;;;;5114427;27;45249;-63
2022/01/27 04:03:57;;;;;;;;;56.75;45.75;;;;;;;;5115503;27;45309;-63
2022/01/27 04:06:31;;;;;;;;;58.00;44.50;;;;;;;;5116433;27;45471;-63
2022/01/27 04:08:56;;;;;;;;;63.25;45.25;;;;;;;;5119059;27;46153;-64
2022/01/27 04:11:22;;;;;;;;;56.75;45.25;;;;;;;;5119283;27;45418;-63
2022/01/27 04:13:47;;;;;;;;;67.00;49.75;;;;;;;;5118382;27;45275;-63
2022/01/27 04:16:12;;;;;;;;;62.00;43.75;;;;;;;;5118192;27;45242;-63
2022/01/27 04:18:37;;;;;;;;;49.75;39.00;;;;;;;;5118284;27;46117;-62
2022/01/27 04:21:02;;;;;;;;;57.75;45.25;;;;;;;;5118105;27;45391;-62
2022/01/27 04:23:28;;;;;;;;;63.50;48.00;;;;;;;;5119099;27;45403;-63
2022/01/27 04:25:53;;;;;;;;;58.50;44.50;;;;;;;;5118499;27;45505;-63
2022/01/27 04:28:25;;;;;;;;;61.25;46.00;;;;;;;;5118243;27;45415;-64
2022/01/27 04:30:52;;;;;;;;;59.50;44.75;;;;;;;;5117981;27;45450;-63
2022/01/27 04:33:17;;;;;;;;;66.00;45.75;;;;;;;;5118330;27;45403;-64
2022/01/27 04:35:47;;;;;;;;;65.25;48.25;;;;;;;;5118894;27;45424;-64
2022/01/27 04:40:57;;;;;;;;;57.50;47.25;;;;;;;;5117978;27;45545;-63
2022/01/27 04:48:39;;;;;;;;;56.25;43.75;;;;;;;;5117942;27;46233;-64
2022/01/27 04:51:07;;;;;;;;;56.50;44.75;;;;;;;;5118310;27;45599;-64
2022/01/27 04:53:38;;;;;;;;;55.00;41.25;;;;;;;;5118447;27;45276;-63
2022/01/27 04:56:03;;;;;;;;;47.50;35.75;;;;;;;;5117699;27;45464;-64
2022/01/27 04:58:32;;;;;;;;;55.75;44.00;;;;;;;;5117378;27;46988;-63
2022/01/27 05:01:00;;;;;;;;;63.25;45.75;;;;;;;;5117022;27;45583;-63
2022/01/27 05:06:26;;;;;;;;;58.00;45.00;;;;;;;;5018903;28;45562;-64
2022/01/27 05:08:51;;;;;;;;;58.25;46.00;;;;;;;;5033789;28;46288;-64
2022/01/27 05:11:25;;;;;;;;;62.50;47.25;;;;;;;;5033297;28;45363;-63
2022/01/27 05:13:58;;;;;;;;;55.00;39.25;;;;;;;;5030754;28;46425;-63
2022/01/27 05:16:23;;;;;;;;;55.00;41.50;;;;;;;;5030414;28;45495;-64
2022/01/27 05:18:48;;;;;;;;;60.50;45.75;;;;;;;;5030555;28;46113;-64
2022/01/27 05:21:13;;;;;;;;;58.00;44.25;;;;;;;;5030862;28;45447;-63
2022/01/27 05:23:39;;;;;;;;;54.50;44.25;;;;;;;;5034155;28;45444;-63
2022/01/27 05:26:04;;;;;;;;;58.50;44.00;;;;;;;;5030619;28;45292;-64
2022/01/27 05:28:29;;;;;;;;;51.50;40.75;;;;;;;;5030219;28;46409;-62
2022/01/27 05:30:54;;;;;;;;;54.50;42.00;;;;;;;;5030666;28;45993;-63
2022/01/27 05:33:20;;;;;;;;;50.00;38.00;;;;;;;;5030365;28;45412;-63
2022/01/27 05:35:46;;;;;;;;;57.25;40.50;;;;;;;;5034174;28;45495;-63
2022/01/27 05:38:15;;;;;;;;;53.75;42.25;;;;;;;;5030019;28;45747;-62
2022/01/27 05:40:41;;;;;;;;;60.00;45.25;;;;;;;;5080428;27;45429;-63
2022/01/27 05:43:06;;;;;;;;;52.50;41.50;;;;;;;;5115838;27;45745;-63
2022/01/27 05:45:31;;;;;;;;;55.00;44.00;;;;;;;;5116724;27;45405;-63
2022/01/27 05:47:56;;;;;;;;;48.25;41.50;;;;;;;;5116372;27;47066;-63
2022/01/27 05:50:22;;;;;;;;;51.50;43.00;;;;;;;;5115932;27;45486;-63
2022/01/27 05:52:47;;;;;;;;;53.75;44.25;;;;;;;;5115869;27;45234;-63
2022/01/27 05:55:12;;;;;;;;;58.25;45.00;;;;;;;;5116474;27;45223;-63
2022/01/27 05:57:37;;;;;;;;;54.50;41.75;;;;;;;;5116060;27;46127;-63
2022/01/27 06:00:03;;;;;;;;;59.75;44.75;;;;;;;;5116119;27;45482;-63
2022/01/27 06:02:29;;;;;;;;;58.00;44.25;;;;;;;;5116590;27;45385;-64
2022/01/27 06:04:54;;;;;;;;;56.50;42.75;;;;;;;;5116579;27;45466;-64
2022/01/27 06:07:19;;;;;;;;;50.25;37.00;;;;;;;;5116203;27;46156;-64
2022/01/27 06:09:44;;;;;;;;;52.50;41.25;;;;;;;;5116690;27;45240;-67
2022/01/27 06:12:10;;;;;;;;;55.75;41.25;;;;;;;;5115485;27;45267;-64
2022/01/27 06:14:35;;;;;;;;;55.75;42.75;;;;;;;;5116663;27;45344;-64
2022/01/27 06:17:00;;;;;;;;;49.25;39.75;;;;;;;;5115429;27;46165;-63
2022/01/27 06:19:27;;;;;;;;;54.25;36.50;;;;;;;;5115260;27;45374;-64
2022/01/27 06:21:53;;;;;;;;;50.00;41.25;;;;;;;;5115762;27;45482;-64
2022/01/27 06:24:18;;;;;;;;;53.50;39.00;;;;;;;;5115519;27;45266;-64
2022/01/27 06:26:43;;;;;;;;;51.50;39.25;;;;;;;;5115363;27;47336;-64
2022/01/27 06:29:09;;;;;;;;;53.00;37.75;;;;;;;;5114600;27;45331;-63
2022/01/27 06:31:34;;;;;;;;;48.75;40.75;;;;;;;;5115070;27;45443;-63
2022/01/27 06:33:59;;;;;;;;;49.75;40.00;;;;;;;;5096311;27;45203;-63
2022/01/27 06:36:24;;;;;;;;;47.50;40.00;;;;;;;;5114902;27;46129;-63
2022/01/27 06:38:50;;;;;;;;;54.75;43.50;;;;;;;;5115494;27;46000;-63
2022/01/27 06:41:15;;;;;;;;;54.25;43.00;;;;;;;;5115686;27;45482;-64
2022/01/27 06:43:40;;;;;;;;;56.00;42.00;;;;;;;;5114307;27;45469;-63
2022/01/27 06:46:05;;;;;;;;;55.25;42.75;;;;;;;;5114090;27;46217;-63
2022/01/27 06:48:31;;;;;;;;;58.50;44.75;;;;;;;;5114673;27;45510;-63
2022/01/27 06:50:56;;;;;;;;;49.75;39.00;;;;;;;;5114744;27;45360;-63
2022/01/27 06:53:22;;;;;;;;;58.00;43.25;;;;;;;;5115468;27;45395;-63
2022/01/27 06:55:47;;;;;;;;;47.50;36.50;;;;;;;;5114352;27;47159;-64
2022/01/27 06:58:13;;;;;;;;;46.25;38.75;;;;;;;;5114488;27;45337;-64
2022/01/27 07:00:38;;;;;;;;;54.25;40.75;;;;;;;;5115467;27;45569;-63
2022/01/27 07:03:03;;;;;;;;;49.00;41.50;;;;;;;;5114340;27;45437;-64
2022/01/27 07:05:31;;;;;;;;;48.75;39.50;;;;;;;;5114909;27;45335;-63
2022/01/27 07:07:57;;;;;;;;;44.50;38.25;;;;;;;;5114940;27;45499;-64
2022/01/27 07:10:22;;;;;;;;;50.75;40.75;;;;;;;;5114021;27;45422;-65
2022/01/27 07:12:47;;;;;;;;;43.00;36.25;;;;;;;;5114466;27;45352;-63
2022/01/27 07:15:12;;;;;;;;;54.50;43.00;;;;;;;;5114261;27;46929;-64
2022/01/27 07:17:38;;;;;;;;;51.00;40.00;;;;;;;;5114816;27;45435;-65
2022/01/27 07:20:04;;;;;;;;;39.50;35.75;;;;;;;;5113807;27;45513;-63
2022/01/27 07:22:31;;;;;;;;;48.50;42.00;;;;;;;;5113499;27;45378;-63
2022/01/27 07:24:56;;;;;;;;;52.00;39.50;;;;;;;;5112705;27;46534;-63
2022/01/27 07:27:21;;;;;;;;;52.50;40.75;;;;;;;;5113221;27;45306;-63
2022/01/27 07:29:46;;;;;;;;;47.00;39.00;;;;;;;;5113886;27;45486;-65
2022/01/27 07:32:12;;;;;;;;;48.25;38.75;;;;;;;;5113542;27;45474;-64
2022/01/27 07:34:37;;;;;;;;;49.25;37.75;;;;;;;;5113992;27;46271;-66
2022/01/27 07:37:03;;;;;;;;;45.75;34.50;;;;;;;;5112923;27;45339;-67
2022/01/27 07:39:28;;;;;;;;;54.50;42.50;;;;;;;;5113425;27;45465;-66
2022/01/27 07:41:56;;;;;;;;;43.50;35.00;;;;;;;;5114963;27;45304;-66
2022/01/27 07:44:21;;;;;;;;;50.25;39.75;;;;;;;;5114620;27;46186;-66
2022/01/27 07:46:47;;;;;;;;;54.50;38.25;;;;;;;;5116070;27;45491;-64
2022/01/27 07:49:12;;;;;;;;;55.75;43.00;;;;;;;;5115887;27;45378;-64
2022/01/27 07:51:37;;;;;;;;;50.00;41.50;;;;;;;;5116971;27;45393;-65
2022/01/27 07:54:02;;;;;;;;;59.75;42.75;;;;;;;;5116472;27;46369;-65
2022/01/27 07:56:28;;;;;;;;;41.50;37.00;;;;;;;;5116515;27;45337;-65
2022/01/27 07:58:53;;;;;;;;;50.25;39.00;;;;;;;;5116724;27;45459;-65
2022/01/27 08:01:18;;;;;;;;;47.25;40.25;;;;;;;;5117119;27;45184;-66
2022/01/27 08:03:44;;;;;;;;;51.25;42.75;;;;;;;;5115764;27;47425;-65
2022/01/27 08:06:09;;;;;;;;;49.75;39.00;;;;;;;;5117244;27;45332;-65
2022/01/27 08:08:34;;;;;;;;;50.25;39.50;;;;;;;;5115674;27;45500;-65
2022/01/27 08:11:00;;;;;;;;;48.25;35.75;;;;;;;;5115459;27;45453;-64
2022/01/27 08:13:25;;;;;;;;;44.75;38.00;;;;;;;;5115685;27;46033;-63
2022/01/27 08:15:51;;;;;;;;;43.75;38.00;;;;;;;;5115511;27;45400;-64
2022/01/27 08:18:16;;;;;;;;;52.75;42.50;;;;;;;;5113596;27;45453;-64
2022/01/27 08:20:41;;;;;;;;;42.50;35.50;;;;;;;;5116891;27;45381;-64
2022/01/27 08:23:07;;;;;;;;;51.75;40.00;;;;;;;;5116253;27;46910;-64
2022/01/27 08:25:33;;;;;;;;;47.25;35.75;;;;;;;;5116815;27;45410;-64
2022/01/27 08:28:01;;;;;;;;;53.75;42.00;;;;;;;;5117633;27;45394;-62
2022/01/27 08:30:29;;;;;;;;;46.75;38.75;;;;;;;;5117228;27;45393;-64
2022/01/27 08:33:00;;;;;;;;;51.50;40.50;;;;;;;;5117119;27;45407;-63
2022/01/27 08:35:26;;;;;;;;;57.75;42.00;;;;;;;;5114768;27;45317;-63
2022/01/27 08:37:52;;;;;;;;;49.25;38.50;;;;;;;;5116324;27;45450;-64
2022/01/27 08:40:18;;;;;;;;;55.00;44.50;;;;;;;;5117157;27;45393;-63
2022/01/27 08:42:44;;;;;;;;;38.50;33.25;;;;;;;;5116854;27;46273;-63
2022/01/27 08:45:13;;;;;;;;;45.00;36.50;;;;;;;;5116840;27;45828;-63
2022/01/27 08:47:39;;;;;;;;;49.25;40.00;;;;;;;;5117902;27;45412;-63
2022/01/27 08:50:05;;;;;;;;;55.75;46.00;;;;;;;;5117051;27;45518;-63
2022/01/27 08:52:31;;;;;;;;;52.25;42.25;;;;;;;;5116201;27;46435;-63
2022/01/27 08:54:56;;;;;;;;;58.75;44.25;;;;;;;;5116712;27;47239;-63
2022/01/27 08:57:21;;;;;;;;;57.50;45.00;;;;;;;;5117381;27;45313;-63
2022/01/27 08:59:49;;;;;;;;;50.00;38.75;;;;;;;;5117660;27;45518;-64
2022/01/27 09:02:14;;;;;;;;;54.75;37.00;;;;;;;;5115989;27;46204;-65
2022/01/27 09:04:39;;;;;;;;;49.00;40.75;;;;;;;;5116981;27;45511;-63
2022/01/27 09:07:04;;;;;;;;;55.00;45.00;;;;;;;;5116346;27;45347;-62
2022/01/27 09:09:30;;;;;;;;;42.50;31.50;;;;;;;;5116280;27;45269;-64
2022/01/27 09:11:58;;;;;;;;;55.25;41.00;;;;;;;;5116194;27;47040;-63
2022/01/27 09:14:28;;;;;;;;;56.75;43.00;;;;;;;;5116683;27;45352;-65
2022/01/27 09:16:53;;;;;;;;;55.50;44.00;;;;;;;;5116173;27;45271;-63
2022/01/27 09:19:19;;;;;;;;;49.75;35.25;;;;;;;;5116061;27;45442;-64
2022/01/27 09:21:46;;;;;;;;;48.00;38.75;;;;;;;;5115909;27;45546;-62
2022/01/27 09:24:17;;;;;;;;;53.75;42.00;;;;;;;;5116099;27;45488;-63
2022/01/27 09:26:52;;;;;;;;;57.00;43.75;;;;;;;;5112855;27;45404;-65
2022/01/27 09:29:19;;;;;;;;;58.50;45.25;;;;;;;;5116645;27;45228;-65
2022/01/27 09:31:44;;;;;;;;;57.50;46.25;;;;;;;;5115964;27;47063;-64
2022/01/27 09:34:09;;;;;;;;;35.25;22.00;;;;;;;;5116110;27;45300;-64
2022/01/27 09:36:34;;;;;;;;;46.00;37.75;;;;;;;;5115789;27;45953;-63
2022/01/27 09:38:59;;;;;;;;;44.25;37.25;;;;;;;;5115857;27;45348;-64
2022/01/27 09:41:27;;;;;;;;;56.50;42.75;;;;;;;;5115158;27;45521;-63
2022/01/27 09:43:53;;;;;;;;;41.00;34.00;;;;;;;;5115220;27;45446;-64
2022/01/27 09:46:20;;;;;;;;;41.50;34.00;;;;;;;;5115165;27;45428;-63
2022/01/27 09:48:48;;;;;;;;;54.50;41.00;;;;;;;;5110020;27;45587;-64
2022/01/27 09:53:45;;;;;;;;;49.50;38.75;;;;;;;;5111631;27;45216;-63
2022/01/27 09:56:11;;;;;;;;;50.50;38.50;;;;;;;;5115490;27;45348;-62
2022/01/27 09:58:36;;;;;;;;;44.75;38.50;;;;;;;;5115218;27;45416;-64
2022/01/27 10:01:01;;;;;;;;;51.75;40.75;;;;;;;;5114069;27;46109;-63
2022/01/27 10:03:28;;;;;;;;;48.00;39.50;;;;;;;;5114288;27;45459;-66
2022/01/27 10:06:07;;;;;;;;;50.00;38.75;;;;;;;;5114112;27;45255;-64
2022/01/27 10:08:33;;;;;;;;;49.25;38.25;;;;;;;;5114961;27;45481;-64
2022/01/27 10:10:59;;;;;;;;;52.25;41.00;;;;;;;;5114866;27;46944;-65
2022/01/27 10:13:30;;;;;;;;;49.00;38.00;;;;;;;;5115045;27;45388;-65
2022/01/27 10:15:56;;;;;;;;;48.25;38.75;;;;;;;;5114902;27;45431;-65
2022/01/27 10:18:25;;;;;;;;;50.50;37.75;;;;;;;;5114859;27;45484;-65
2022/01/27 10:20:51;;;;;;;;;49.75;39.00;;;;;;;;5114708;27;46027;-64
2022/01/27 10:23:18;;;;;;;;;45.75;37.00;;;;;;;;5113802;27;45446;-64
2022/01/27 10:25:51;;;;;;;;;39.25;34.25;;;;;;;;5114541;27;45731;-64
2022/01/27 10:28:22;;;;;;;;;43.75;36.25;;;;;;;;5114406;27;45448;-64
2022/01/27 10:30:53;;;;;;;;;51.50;36.50;;;;;;;;5115123;27;46107;-65
2022/01/27 10:33:18;;;;;;;;;40.00;31.75;;;;;;;;5110273;27;45541;-67
2022/01/27 10:35:43;;;;;;;;;46.75;37.00;;;;;;;;5115760;27;45413;-64
2022/01/27 10:38:09;;;;;;;;;51.00;37.75;;;;;;;;5114322;27;45570;-65
2022/01/27 10:40:36;;;;;;;;;48.50;37.50;;;;;;;;5114415;27;45418;-64
2022/01/27 10:43:01;;;;;;;;;43.75;35.50;;;;;;;;5113048;27;45493;-64
2022/01/27 10:45:26;;;;;;;;;49.50;37.00;;;;;;;;5114007;27;45419;-64
2022/01/27 10:47:51;;;;;;;;;47.25;34.25;;;;;;;;5114311;27;45458;-64
2022/01/27 10:50:17;;;;;;;;;43.00;34.25;;;;;;;;5114680;27;45395;-65
2022/01/27 10:52:51;;;;;;;;;44.50;37.50;;;;;;;;5113820;27;45372;-65
2022/01/27 10:55:19;;;;;;;;;49.75;39.25;;;;;;;;5115312;27;45427;-64
2022/01/27 10:57:50;;;;;;;;;53.75;43.00;;;;;;;;5114200;27;45459;-65
2022/01/27 11:00:16;;;;;;;;;53.25;39.00;;;;;;;;5097985;27;45425;-65
2022/01/27 11:02:49;;;;;;;;;55.00;42.00;;;;;;;;5114238;27;45544;-65
2022/01/27 11:05:18;;;;;;;;;49.25;37.50;;;;;;;;5114204;27;45250;-62
2022/01/27 11:07:43;;;;;;;;;43.25;33.50;;;;;;;;5114358;27;45457;-62
2022/01/27 11:10:08;;;;;;;;;46.75;37.00;;;;;;;;5114019;27;46144;-65
2022/01/27 11:12:34;;;;;;;;;50.00;37.00;;;;;;;;5093134;27;45420;-63
2022/01/27 11:15:00;;;;;;;;;45.00;37.00;;;;;;;;5113905;27;45508;-63
2022/01/27 11:17:29;;;;;;;;;37.50;29.25;;;;;;;;5114379;27;45288;-64
2022/01/27 11:20:15;;;;;;;;;46.00;37.25;;;;;;;;5114138;27;47339;-63
2022/01/27 11:22:47;;;;;;;;;44.50;37.25;;;;;;;;5115344;27;45523;-63
2022/01/27 11:27:44;;;;;;;;;53.75;39.75;;;;;;;;5112709;27;45450;-64
2022/01/27 11:30:28;;;;;;;;;41.75;36.50;;;;;;;;5112721;27;46184;-65
2022/01/27 11:32:53;;;;;;;;;52.00;37.50;;;;;;;;5110252;27;45564;-62
2022/01/27 11:35:20;;;;;;;;;47.00;38.00;;;;;;;;5113808;27;45661;-64
2022/01/27 11:37:55;;;;;;;;;53.50;41.25;;;;;;;;5112715;27;45534;-63
2022/01/27 11:40:23;;;;;;;;;51.50;41.00;;;;;;;;5112754;27;46292;-62
2022/01/27 11:42:54;;;;;;;;;49.75;36.00;;;;;;;;5112571;27;45323;-62
2022/01/27 11:45:22;;;;;;;;;44.75;37.25;;;;;;;;5097476;27;45444;-63
2022/01/27 11:47:57;;;;;;;;;50.25;39.00;;;;;;;;5114040;27;45297;-65
2022/01/27 11:50:37;;;;;;;;;48.50;38.00;;;;;;;;5113753;27;46494;-63
2022/01/27 11:53:07;;;;;;;;;35.75;27.50;;;;;;;;5112771;27;45812;-62
2022/01/27 11:55:35;;;;;;;;;51.25;37.50;;;;;;;;5113182;27;45678;-64
2022/01/27 11:58:03;;;;;;;;;52.00;42.50;;;;;;;;5113336;27;45444;-64
2022/01/27 12:00:29;;;;;;;;;46.75;37.50;;;;;;;;5112379;27;46362;-62
2022/01/27 12:02:57;;;;;;;;;50.75;39.25;;;;;;;;5122294;27;45389;-63
2022/01/27 12:05:23;;;;;;;;;53.00;40.00;;;;;;;;5109887;27;45599;-62
2022/01/27 12:08:08;;;;;;;;;47.50;37.00;;;;;;;;5112661;27;45453;-64
2022/01/27 12:10:56;;;;;;;;;48.50;37.00;;;;;;;;5101025;27;46340;-64
2022/01/27 12:13:34;;;;;;;;;52.25;41.00;;;;;;;;5112575;27;45578;-62
2022/01/27 12:18:56;;;;;;;;;50.00;37.25;;;;;;;;5112897;27;45356;-63
2022/01/27 12:21:43;;;;;;;;;47.75;41.50;;;;;;;;5097414;27;47218;-62
2022/01/27 12:24:12;;;;;;;;;45.75;37.75;;;;;;;;5113055;27;45184;-62
2022/01/27 12:26:49;;;;;;;;;50.75;38.75;;;;;;;;5113987;27;45384;-63
2022/01/27 12:29:22;;;;;;;;;54.00;40.50;;;;;;;;5115638;27;45361;-63
2022/01/27 12:31:48;;;;;;;;;38.50;28.75;;;;;;;;5115471;27;46452;-64
2022/01/27 12:34:13;;;;;;;;;32.00;31.50;;;;;;;;5116480;27;45462;-63
2022/01/27 12:36:38;;;;;;;;;44.75;39.25;;;;;;;;5116972;27;45548;-63
2022/01/27 12:39:03;;;;;;;;;45.50;37.50;;;;;;;;5116700;27;45387;-64
2022/01/27 12:41:35;;;;;;;;;46.25;37.75;;;;;;;;5117365;27;46544;-63
2022/01/27 12:44:10;;;;;;;;;41.50;32.75;;;;;;;;5115878;27;45372;-62
2022/01/27 12:46:36;;;;;;;;;41.50;35.00;;;;;;;;5116217;27;45335;-64
2022/01/27 12:49:03;;;;;;;;;51.25;36.00;;;;;;;;5116075;27;45516;-64
2022/01/27 12:51:45;;;;;;;;;52.50;41.75;;;;;;;;5116001;27;46058;-64
2022/01/27 12:54:11;;;;;;;;;47.75;38.75;;;;;;;;5116014;27;45497;-62
2022/01/27 12:56:36;;;;;;;;;45.75;38.25;;;;;;;;5117022;27;45363;-63
2022/01/27 12:59:02;;;;;;;;;39.00;34.50;;;;;;;;5116093;27;45687;-64
2022/01/27 13:01:32;;;;;;;;;50.75;38.25;;;;;;;;5116162;27;46992;-64
2022/01/27 13:04:01;;;;;;;;;47.25;39.00;;;;;;;;5116091;27;45325;-62
2022/01/27 13:06:34;;;;;;;;;48.75;37.50;;;;;;;;5117025;27;45318;-64
2022/01/27 13:09:12;;;;;;;;;46.50;39.00;;;;;;;;5113055;27;45548;-65
2022/01/27 13:11:39;;;;;;;;;50.50;39.75;;;;;;;;5115674;27;46190;-64
2022/01/27 13:14:08;;;;;;;;;50.25;37.00;;;;;;;;5114820;27;45484;-62
2022/01/27 13:16:45;;;;;;;;;40.50;34.75;;;;;;;;5096160;27;45324;-62
2022/01/27 13:19:22;;;;;;;;;41.25;35.00;;;;;;;;5116151;27;45633;-63
2022/01/27 13:21:57;;;;;;;;;43.25;37.50;;;;;;;;5114799;27;46427;-63
2022/01/27 13:24:23;;;;;;;;;52.50;38.50;;;;;;;;5100710;27;45335;-61
2022/01/27 13:26:50;;;;;;;;;50.00;38.75;;;;;;;;5115164;27;45495;-63
2022/01/27 13:29:17;;;;;;;;;46.50;35.75;;;;;;;;5115732;27;45212;-62
2022/01/27 13:31:44;;;;;;;;;43.25;36.00;;;;;;;;5116014;27;46120;-62
2022/01/27 13:34:09;;;;;;;;;44.25;31.25;;;;;;;;5114804;27;45238;-63
2022/01/27 13:36:36;;;;;;;;;46.25;35.25;;;;;;;;5115584;27;45319;-63
2022/01/27 13:41:33;;;;;;;;;48.25;38.00;;;;;;;;5115357;27;45360;-62
2022/01/27 13:44:06;;;;;;;;;36.00;33.00;;;;;;;;5114738;27;45324;-63
2022/01/27 13:46:53;;;;;;;;;43.75;36.25;;;;;;;;5114571;27;45485;-63
2022/01/27 13:49:23;;;;;;;;;47.75;38.00;;;;;;;;5114430;27;45560;-62
2022/01/27 13:51:51;;;;;;;;;42.75;36.00;;;;;;;;5115008;27;45813;-62
2022/01/27 13:54:16;;;;;;;;;37.75;29.25;;;;;;;;5106531;27;45342;-63
2022/01/27 13:56:47;;;;;;;;;37.50;31.25;;;;;;;;5115413;27;45425;-64
2022/01/27 13:59:16;;;;;;;;;50.00;36.00;;;;;;;;5115388;27;45305;-63
2022/01/27 14:01:41;;;;;;;;;44.50;36.75;;;;;;;;5113725;27;46939;-62
2022/01/27 14:04:07;;;;;;;;;36.50;34.75;;;;;;;;5114273;27;45403;-62
2022/01/27 14:06:46;;;;;;;;;38.75;33.00;;;;;;;;5115240;27;45349;-64
2022/01/27 14:09:18;;;;;;;;;47.50;37.25;;;;;;;;5113840;27;45600;-62
2022/01/27 14:11:43;;;;;;;;;42.00;36.75;;;;;;;;5115193;27;45569;-62
2022/01/27 14:14:09;;;;;;;;;42.00;35.00;;;;;;;;5114594;27;45594;-62
2022/01/27 14:16:34;;;;;;;;;48.75;36.75;;;;;;;;5114392;27;45366;-63
2022/01/27 14:19:11;;;;;;;;;41.50;35.25;;;;;;;;5114350;27;45378;-63
2022/01/27 14:21:40;;;;;;;;;40.00;34.50;;;;;;;;5113875;27;45471;-64
2022/01/27 14:24:11;;;;;;;;;31.00;26.25;;;;;;;;5112865;27;45479;-63
2022/01/27 14:26:41;;;;;;;;;40.75;35.25;;;;;;;;5114723;27;45539;-64
2022/01/27 14:29:11;;;;;;;;;49.50;35.25;;;;;;;;5112859;27;45429;-64
2022/01/27 14:31:38;;;;;;;;;42.00;33.25;;;;;;;;5113465;27;46389;-64
2022/01/27 14:34:03;;;;;;;;;38.25;32.00;;;;;;;;5113499;27;45581;-62
2022/01/27 14:36:28;;;;;;;;;47.00;35.50;;;;;;;;5113733;27;45279;-64
2022/01/27 14:38:54;;;;;;;;;42.75;34.75;;;;;;;;5114292;27;45464;-64
2022/01/27 14:41:20;;;;;;;;;40.50;33.75;;;;;;;;5113027;27;47000;-62
2022/01/27 14:43:46;;;;;;;;;43.50;35.50;;;;;;;;5113488;27;45489;-63
2022/01/27 14:46:14;;;;;;;;;45.00;37.50;;;;;;;;5114355;27;45493;-64
2022/01/27 14:48:42;;;;;;;;;40.50;35.75;;;;;;;;5112325;27;45408;-64
2022/01/27 14:51:09;;;;;;;;;46.50;35.75;;;;;;;;5112907;27;45566;-65
2022/01/27 14:53:35;;;;;;;;;44.75;36.00;;;;;;;;5114651;27;45539;-61
2022/01/27 14:56:01;;;;;;;;;46.25;36.50;;;;;;;;5113780;27;45409;-62
2022/01/27 14:58:26;;;;;;;;;39.00;34.75;;;;;;;;5114042;27;45476;-63
2022/01/27 15:00:51;;;;;;;;;39.75;33.00;;;;;;;;5114089;27;47167;-64
2022/01/27 15:03:16;;;;;;;;;38.50;34.75;;;;;;;;5114924;27;45357;-62
2022/01/27 15:05:42;;;;;;;;;41.50;33.75;;;;;;;;5115876;27;45632;-63
2022/01/27 15:08:07;;;;;;;;;41.75;34.00;;;;;;;;5114556;27;45337;-63
2022/01/27 15:10:32;;;;;;;;;47.75;36.00;;;;;;;;5113339;27;46354;-64
2022/01/27 15:12:57;;;;;;;;;48.75;38.25;;;;;;;;5113790;27;45504;-64
2022/01/27 15:20:57;;;;;;;;;41.00;35.00;;;;;;;;5106468;27;45503;-63
2022/01/27 15:23:23;;;;;;;;;49.25;39.50;;;;;;;;5113545;27;45462;-64
2022/01/27 15:25:49;;;;;;;;;49.75;37.75;;;;;;;;5114296;27;45426;-64
2022/01/27 15:28:15;;;;;;;;;48.75;37.50;;;;;;;;5114396;27;47513;-63